createdAt,value
2022-08-09T00:02:19.944Z,2.00
2022-08-09T00:06:15.805Z,2.00
2022-08-09T00:08:32.112Z,1.80
2022-08-09T00:11:24.259Z,2.20
2022-08-09T00:14:11.475Z,2.22
2022-08-09T00:17:03.758Z,1.90
2022-08-09T00:19:48.994Z,2.03
2022-08-09T00:22:37.117Z,1.70
2022-08-09T00:25:32.765Z,1.97
2022-08-09T00:28:19.321Z,2.10
2022-08-09T00:31:30.535Z,2.10
2022-08-09T00:34:14.211Z,2.17
2022-08-09T00:37:00.157Z,2.30
2022-08-09T00:40:12.806Z,1.93
2022-08-09T00:44:18.699Z,1.80
2022-08-09T00:45:56.598Z,1.90
2022-08-09T00:48:47.556Z,1.80
2022-08-09T00:51:54.483Z,1.80
2022-08-09T00:54:40.273Z,1.87
2022-08-09T00:57:34.914Z,1.77
2022-08-09T01:00:23.545Z,2.50
2022-08-09T01:03:12.818Z,1.77
2022-08-09T01:06:18.050Z,1.97
2022-08-09T01:09:25.632Z,1.93
2022-08-09T01:12:57.245Z,2.00
2022-08-09T01:15:52.397Z,1.90
2022-08-09T01:18:42.906Z,1.87
2022-08-09T01:21:52.369Z,1.70
2022-08-09T01:25:05.821Z,1.97
2022-08-09T01:27:57.124Z,1.70
2022-08-09T01:30:52.128Z,1.83
2022-08-09T01:33:40.500Z,1.70
2022-08-09T01:36:27.818Z,1.70
2022-08-09T01:39:14.894Z,1.90
2022-08-09T01:42:11.212Z,2.00
2022-08-09T01:44:57.459Z,1.70
2022-08-09T01:47:46.794Z,2.07
2022-08-09T01:50:41.877Z,1.90
2022-08-09T01:53:41.483Z,1.90
2022-08-09T01:56:29.055Z,1.90
2022-08-09T01:59:19.001Z,1.60
2022-08-09T02:02:05.519Z,2.03
2022-08-09T02:04:52.154Z,1.90
2022-08-09T02:08:38.590Z,1.93
2022-08-09T02:10:54.944Z,1.80
2022-08-09T02:13:41.802Z,1.90
2022-08-09T02:16:35.182Z,1.80
2022-08-09T02:19:43.063Z,1.97
2022-08-09T02:22:36.493Z,1.60
2022-08-09T02:25:27.508Z,1.90
2022-08-09T02:28:42.250Z,2.07
2022-08-09T02:31:36.350Z,1.93
2022-08-09T02:34:40.527Z,1.90
2022-08-09T02:37:31.843Z,1.67
2022-08-09T02:40:24.976Z,2.00
2022-08-09T02:43:13.240Z,1.87
2022-08-09T02:46:01.497Z,1.70
2022-08-09T02:48:51.371Z,1.80
2022-08-09T02:51:40.461Z,2.03
2022-08-09T02:54:27.537Z,1.87
2022-08-09T02:57:23.559Z,1.53
2022-08-09T03:00:20.965Z,1.60
2022-08-09T03:03:13.149Z,1.80
2022-08-09T03:06:07.752Z,1.67
2022-08-09T03:08:54.582Z,1.60
2022-08-09T03:12:10.640Z,2.00
2022-08-09T03:14:47.289Z,2.00
2022-08-09T03:17:33.341Z,1.80
2022-08-09T03:20:20.474Z,1.83
2022-08-09T03:23:15.501Z,2.00
2022-08-09T03:26:10.201Z,1.83
2022-08-09T03:28:59.304Z,2.00
2022-08-09T03:32:00.527Z,1.83
2022-08-09T03:34:48.234Z,1.83
2022-08-09T03:40:44.256Z,1.90
2022-08-09T03:43:31.973Z,1.60
2022-08-09T03:46:20.775Z,2.00
2022-08-09T03:49:16.631Z,1.80
2022-08-09T03:52:07.363Z,1.73
2022-08-09T03:54:54.238Z,1.90
2022-08-09T03:57:53.846Z,2.33
2022-08-09T04:00:49.458Z,3.13
2022-08-09T04:04:01.380Z,5.20
2022-08-09T04:06:41.164Z,8.90
2022-08-09T04:12:44.566Z,12.87
2022-08-09T04:16:17.430Z,12.70
2022-08-09T04:18:35.507Z,12.37
2022-08-09T04:21:22.148Z,11.93
2022-08-09T04:24:08.183Z,10.70
2022-08-09T04:26:54.570Z,9.10
2022-08-09T04:29:48.636Z,8.70
2022-08-09T04:32:37.222Z,8.37
2022-08-09T04:35:24.163Z,7.87
2022-08-09T04:38:09.711Z,8.83
2022-08-09T04:40:57.180Z,9.33
2022-08-09T04:43:49.892Z,8.90
2022-08-09T04:46:59.323Z,9.07
2022-08-09T04:49:54.294Z,7.60
2022-08-09T04:52:42.183Z,7.50
2022-08-09T04:55:28.305Z,7.40
2022-08-09T04:58:24.439Z,7.30
2022-08-09T05:01:16.392Z,6.73
2022-08-09T05:04:04.706Z,5.88
2022-08-09T05:06:50.538Z,6.80
2022-08-09T05:09:45.263Z,5.93
2022-08-09T05:12:35.085Z,5.57
2022-08-09T05:15:24.819Z,6.13
2022-08-09T05:18:38.942Z,5.50
2022-08-09T05:21:36.436Z,5.57
2022-08-09T05:24:33.020Z,5.03
2022-08-09T05:27:18.155Z,4.83
2022-08-09T05:30:04.685Z,5.33
2022-08-09T05:32:53.258Z,4.30
2022-08-09T05:35:39.044Z,4.83
2022-08-09T05:38:32.538Z,4.93
2022-08-09T05:41:17.836Z,4.30
2022-08-09T05:44:03.152Z,4.37
2022-08-09T05:46:50.641Z,4.60
2022-08-09T05:50:25.804Z,3.80
2022-08-09T05:52:43.306Z,3.47
2022-08-09T05:55:31.181Z,3.93
2022-08-09T05:58:18.473Z,3.67
2022-08-09T06:01:04.125Z,4.10
2022-08-09T06:03:58.160Z,4.50
2022-08-09T06:06:49.998Z,4.73
2022-08-09T06:10:01.800Z,4.00
2022-08-09T06:12:40.933Z,3.90
2022-08-09T06:15:27.614Z,3.73
2022-08-09T06:18:13.469Z,3.47
2022-08-09T06:21:01.905Z,3.63
2022-08-09T06:23:58.515Z,4.10
2022-08-09T06:26:47.576Z,4.50
2022-08-09T06:29:33.757Z,3.63
2022-08-09T06:32:53.551Z,3.70
2022-08-09T06:35:55.911Z,4.33
2022-08-09T06:38:50.432Z,3.53
2022-08-09T06:41:39.699Z,3.50
2022-08-09T06:44:43.449Z,2.80
2022-08-09T06:47:39.397Z,3.27
2022-08-09T06:50:24.653Z,3.57
2022-08-09T06:53:10.963Z,4.00
2022-08-09T06:55:56.959Z,3.57
2022-08-09T07:00:49.820Z,2.87
2022-08-09T07:01:54.098Z,2.80
2022-08-09T07:04:43.284Z,2.93
2022-08-09T07:08:00.884Z,2.90
2022-08-09T07:10:34.773Z,3.43
2022-08-09T07:13:28.139Z,3.20
2022-08-09T07:16:44.009Z,3.20
2022-08-09T07:19:23.452Z,3.10
2022-08-09T07:22:10.904Z,2.97
2022-08-09T07:24:57.224Z,2.60
2022-08-09T07:27:53.090Z,2.80
2022-08-09T07:30:39.130Z,3.93
2022-08-09T07:33:24.753Z,2.60
2022-08-09T07:36:10.088Z,3.10
2022-08-09T07:39:00.890Z,3.07
2022-08-09T07:41:48.344Z,2.97
2022-08-09T07:44:51.973Z,2.60
2022-08-09T07:47:49.217Z,2.60
2022-08-09T07:50:53.109Z,2.30
2022-08-09T07:54:06.877Z,3.10
2022-08-09T07:56:53.349Z,3.08
2022-08-09T07:59:50.920Z,2.33
2022-08-09T08:02:47.975Z,2.47
2022-08-09T08:05:53.632Z,3.00
2022-08-09T08:09:01.539Z,3.00
2022-08-09T08:12:24.942Z,2.33
2022-08-09T08:14:50.625Z,2.73
2022-08-09T08:17:52.876Z,2.50
2022-08-09T08:20:42.802Z,2.90
2022-08-09T08:23:28.584Z,3.30
2022-08-09T08:26:17.663Z,3.10
2022-08-09T08:29:12.380Z,3.17
2022-08-09T08:32:03.274Z,3.13
2022-08-09T08:34:51.949Z,3.40
2022-08-09T08:38:02.049Z,3.60
2022-08-09T08:40:49.490Z,3.13
2022-08-09T08:43:36.124Z,3.10
2022-08-09T08:46:31.913Z,3.00
2022-08-09T08:49:19.295Z,3.10
2022-08-09T08:52:10.290Z,3.73
2022-08-09T08:54:58.999Z,3.33
2022-08-09T08:57:56.400Z,3.00
2022-08-09T09:00:45.597Z,3.43
2022-08-09T09:03:42.495Z,2.90
2022-08-09T09:06:32.207Z,2.97
2022-08-09T09:09:58.226Z,2.87
2022-08-09T09:12:29.695Z,2.93
2022-08-09T09:15:28.344Z,2.93
2022-08-09T09:18:15.924Z,3.23
2022-08-09T09:21:02.091Z,2.90
2022-08-09T09:23:58.463Z,2.60
2022-08-09T09:27:02.034Z,2.63
2022-08-09T09:33:15.576Z,2.53
2022-08-09T09:36:19.878Z,2.93
2022-08-09T09:39:09.812Z,2.70
2022-08-09T09:41:56.910Z,2.40
2022-08-09T09:44:42.483Z,2.70
2022-08-09T09:47:28.993Z,2.83
2022-08-09T09:50:17.591Z,2.23
2022-08-09T09:53:16.340Z,2.40
2022-08-09T09:56:05.788Z,3.00
2022-08-09T09:58:53.428Z,2.93
2022-08-09T10:01:40.883Z,2.90
2022-08-09T10:04:30.875Z,2.50
2022-08-09T10:07:25.918Z,2.80
2022-08-09T10:10:11.658Z,2.53
2022-08-09T10:12:57.552Z,2.70
2022-08-09T10:16:09.296Z,2.23
2022-08-09T10:18:59.762Z,2.20
2022-08-09T10:21:49.683Z,2.50
2022-08-09T10:24:36.426Z,2.60
2022-08-09T10:27:28.476Z,2.50
2022-08-09T10:34:05.001Z,2.40
2022-08-09T10:36:32.619Z,2.63
2022-08-09T10:39:23.367Z,2.57
2022-08-09T10:42:16.034Z,2.30
2022-08-09T10:45:11.890Z,2.33
2022-08-09T10:48:26.151Z,2.80
2022-08-09T10:51:29.733Z,2.47
2022-08-09T10:54:26.996Z,2.40
2022-08-09T10:57:14.173Z,2.50
2022-08-09T11:00:01.657Z,2.57
2022-08-09T11:03:14.428Z,3.30
2022-08-09T11:06:23.006Z,3.20
2022-08-09T11:09:15.274Z,3.07
2022-08-09T11:12:26.529Z,3.90
2022-08-09T11:15:18.617Z,3.30
2022-08-09T11:18:04.507Z,3.20
2022-08-09T11:20:50.086Z,3.67
2022-08-09T11:24:01.412Z,3.37
2022-08-09T11:26:54.537Z,3.10
2022-08-09T11:30:05.804Z,3.33
2022-08-09T11:33:05.895Z,3.33
2022-08-09T11:35:57.301Z,2.90
2022-08-09T11:38:42.991Z,3.00
2022-08-09T11:41:38.234Z,3.27
2022-08-09T11:44:44.145Z,3.07
2022-08-09T11:47:46.107Z,2.67
2022-08-09T11:52:54.224Z,2.27
2022-08-09T11:54:14.426Z,2.80
2022-08-09T11:58:00.760Z,2.70
2022-08-09T12:00:53.286Z,2.63
2022-08-09T12:03:55.834Z,2.67
2022-08-09T12:06:55.610Z,2.73
2022-08-09T12:09:51.024Z,2.80
2022-08-09T12:12:47.730Z,2.80
2022-08-09T12:15:50.122Z,2.47
2022-08-09T12:18:42.573Z,2.20
2022-08-09T12:21:38.872Z,2.50
2022-08-09T12:24:25.262Z,2.70
2022-08-09T12:28:59.794Z,2.40
2022-08-09T12:30:36.483Z,2.43
2022-08-09T12:33:26.501Z,2.30
2022-08-09T12:36:33.703Z,2.33
2022-08-09T12:39:19.614Z,2.60
2022-08-09T12:42:09.301Z,2.40
2022-08-09T12:44:55.180Z,2.70
2022-08-09T12:47:50.131Z,2.37
2022-08-09T12:50:37.268Z,2.50
2022-08-09T12:53:36.684Z,2.50
2022-08-09T12:56:43.111Z,2.53
2022-08-09T12:59:40.019Z,2.30
2022-08-09T13:02:54.154Z,2.17
2022-08-09T13:05:51.690Z,2.20
2022-08-09T13:09:07.817Z,2.40
2022-08-09T13:12:01.886Z,2.77
2022-08-09T13:14:53.871Z,3.47
2022-08-09T13:17:58.846Z,3.75
2022-08-09T13:22:33.600Z,3.60
2022-08-09T13:24:42.363Z,4.13
2022-08-09T13:27:24.567Z,5.33
2022-08-09T13:31:11.493Z,5.63
2022-08-09T13:33:35.885Z,5.00
2022-08-09T13:36:42.391Z,5.37
2022-08-09T13:41:21.239Z,3.97
2022-08-09T13:42:36.397Z,4.20
2022-08-09T13:45:22.238Z,4.27
2022-08-09T13:48:18.276Z,4.97
2022-08-09T13:51:03.938Z,3.80
2022-08-09T13:53:49.418Z,3.70
2022-08-09T13:56:37.680Z,3.30
2022-08-09T13:59:25.681Z,3.47
2022-08-09T14:02:11.073Z,3.40
2022-08-09T14:04:59.725Z,3.67
2022-08-09T14:07:46.690Z,3.03
2022-08-09T14:10:45.927Z,2.90
2022-08-09T14:14:21.933Z,3.13
2022-08-09T14:16:40.735Z,3.30
2022-08-09T14:19:26.903Z,2.80
2022-08-09T14:22:20.688Z,2.58
2022-08-09T14:25:10.019Z,3.00
2022-08-09T14:27:57.047Z,2.77
2022-08-09T14:30:45.135Z,2.90
2022-08-09T14:33:38.139Z,2.60
2022-08-09T14:36:25.898Z,2.50
2022-08-09T14:39:21.733Z,2.60
2022-08-09T14:42:30.801Z,2.43
2022-08-09T14:46:55.971Z,2.50
2022-08-09T14:48:24.043Z,2.93
2022-08-09T14:51:12.667Z,2.70
2022-08-09T14:53:59.570Z,2.60
2022-08-09T14:56:57.923Z,2.33
2022-08-09T14:59:48.444Z,2.60
2022-08-09T15:02:34.408Z,2.70
2022-08-09T15:05:22.216Z,2.90
2022-08-09T15:08:10.365Z,2.70
2022-08-09T15:11:00.457Z,2.50
2022-08-09T15:13:55.842Z,2.77
2022-08-09T15:16:49.215Z,2.83
2022-08-09T15:19:36.306Z,2.40
2022-08-09T15:22:22.724Z,2.73
2022-08-09T15:25:11.817Z,2.50
2022-08-09T15:28:01.411Z,2.73
2022-08-09T15:30:59.837Z,2.70
2022-08-09T15:34:17.227Z,2.90
2022-08-09T15:36:53.919Z,2.57
2022-08-09T15:39:53.598Z,2.40
2022-08-09T15:42:42.467Z,2.63
2022-08-09T15:45:29.512Z,3.10
2022-08-09T15:48:29.402Z,3.00
2022-08-09T15:52:00.770Z,3.03
2022-08-09T15:54:33.627Z,3.30
2022-08-09T15:57:34.009Z,2.70
2022-08-09T16:00:26.078Z,2.67
2022-08-09T16:03:26.598Z,3.27
2022-08-09T16:06:32.374Z,3.53
2022-08-09T16:09:51.585Z,3.47
2022-08-09T16:12:30.988Z,3.90
2022-08-09T16:16:10.160Z,3.10
2022-08-09T16:18:31.181Z,3.20
2022-08-09T16:21:25.504Z,3.50
2022-08-09T16:24:35.037Z,3.07
2022-08-09T16:27:30.457Z,3.07
2022-08-09T16:30:29.753Z,2.90
2022-08-09T16:33:25.345Z,2.70
2022-08-09T16:36:18.733Z,2.40
2022-08-09T16:39:10.535Z,2.83
2022-08-09T16:42:03.703Z,3.10
2022-08-09T16:44:53.598Z,2.73
2022-08-09T16:48:39.804Z,2.73
2022-08-09T16:51:07.874Z,2.83
2022-08-09T16:54:25.425Z,2.40
2022-08-09T16:57:10.760Z,2.80
2022-08-09T17:00:04.055Z,2.73
2022-08-09T17:02:57.440Z,2.63
2022-08-09T17:09:44.948Z,2.77
2022-08-09T17:12:20.686Z,2.70
2022-08-09T17:15:31.283Z,2.73
2022-08-09T17:18:26.805Z,2.70
2022-08-09T17:21:18.663Z,2.90
2022-08-09T17:27:27.439Z,2.47
2022-08-09T17:30:22.321Z,2.87
2022-08-09T17:33:23.902Z,3.10
2022-08-09T17:36:15.653Z,3.40
2022-08-09T17:39:04.991Z,2.70
2022-08-09T17:42:02.997Z,2.83
2022-08-09T17:44:52.007Z,2.93
2022-08-09T17:47:49.305Z,2.80
2022-08-09T17:50:56.258Z,2.70
2022-08-09T17:54:01.096Z,2.80
2022-08-09T17:56:57.579Z,2.73
2022-08-09T18:00:05.126Z,2.70
2022-08-09T18:02:58.939Z,2.93
2022-08-09T18:05:53.027Z,2.97
2022-08-09T18:08:41.043Z,3.10
2022-08-09T18:11:29.031Z,2.90
2022-08-09T18:14:18.347Z,2.80
2022-08-09T18:17:06.989Z,3.00
2022-08-09T18:20:54.308Z,3.03
2022-08-09T18:23:05.529Z,2.83
2022-08-09T18:25:57.410Z,2.80
2022-08-09T18:30:35.698Z,2.60
2022-08-09T18:31:55.777Z,3.27
2022-08-09T18:34:41.798Z,2.50
2022-08-09T18:37:47.829Z,2.63
2022-08-09T18:40:33.492Z,2.50
2022-08-09T18:43:19.259Z,2.40
2022-08-09T18:46:51.090Z,2.50
2022-08-09T18:49:11.839Z,3.07
2022-08-09T18:51:59.770Z,2.90
2022-08-09T18:54:52.661Z,2.67
2022-08-09T18:57:44.536Z,2.80
2022-08-09T19:00:31.261Z,2.90
2022-08-09T19:03:16.889Z,2.83
2022-08-09T19:06:04.793Z,2.73
2022-08-09T19:08:54.927Z,2.77
2022-08-09T19:11:48.144Z,2.57
2022-08-09T19:14:33.427Z,2.37
2022-08-09T19:17:22.291Z,2.33
2022-08-09T19:20:08.966Z,2.30
2022-08-09T19:22:55.159Z,2.33
2022-08-09T19:26:00.675Z,3.00
2022-08-09T19:28:48.769Z,2.50
2022-08-09T19:31:44.862Z,2.77
2022-08-09T19:34:31.296Z,2.20
2022-08-09T19:37:16.989Z,2.67
2022-08-09T19:40:05.620Z,2.40
2022-08-09T19:42:53.360Z,2.90
2022-08-09T19:45:40.495Z,2.60
2022-08-09T19:49:00.954Z,2.57
2022-08-09T19:51:33.460Z,2.57
2022-08-09T19:54:25.091Z,2.80
2022-08-09T19:57:10.603Z,2.57
2022-08-09T19:59:59.175Z,2.40
2022-08-09T20:04:17.917Z,2.90
2022-08-09T20:06:03.198Z,2.40
2022-08-09T20:08:49.502Z,2.67
2022-08-09T20:11:45.304Z,2.67
2022-08-09T20:14:37.307Z,2.80
2022-08-09T20:17:48.079Z,2.60
2022-08-09T20:20:35.213Z,2.70
2022-08-09T20:23:23.917Z,2.30
2022-08-09T20:26:23.848Z,2.60
2022-08-09T20:29:18.887Z,2.43
2022-08-09T20:32:29.179Z,2.70
2022-08-09T20:35:15.822Z,2.63
2022-08-09T20:38:22.564Z,2.57
2022-08-09T20:41:07.766Z,2.80
2022-08-09T20:43:58.355Z,2.60
2022-08-09T20:46:45.260Z,2.70
2022-08-09T20:49:31.066Z,2.63
2022-08-09T20:52:20.672Z,2.63
2022-08-09T20:55:07.472Z,2.40
2022-08-09T20:58:08.320Z,2.87
2022-08-09T21:01:33.186Z,2.80
2022-08-09T21:05:51.071Z,2.43
2022-08-09T21:07:17.000Z,2.43
2022-08-09T21:10:02.843Z,2.80
2022-08-09T21:15:52.081Z,2.50
2022-08-09T21:19:01.461Z,2.50
2022-08-09T21:21:56.118Z,2.73
2022-08-09T21:25:01.405Z,2.50
2022-08-09T21:27:51.110Z,2.70
2022-08-09T21:30:40.555Z,3.07
2022-08-09T21:33:26.514Z,2.50
2022-08-09T21:36:26.052Z,2.70
2022-08-09T21:39:21.901Z,2.70
2022-08-09T21:42:16.039Z,2.20
2022-08-09T21:45:01.912Z,2.60
2022-08-09T21:47:50.843Z,2.33
2022-08-09T21:50:38.854Z,2.70
2022-08-09T21:53:40.729Z,2.50
2022-08-09T21:56:42.880Z,2.50
2022-08-09T21:59:42.848Z,2.50
2022-08-09T22:02:36.320Z,2.73
2022-08-09T22:05:35.431Z,2.77
2022-08-09T22:08:25.541Z,2.53
2022-08-09T22:12:06.515Z,2.57
2022-08-09T22:14:16.756Z,2.40
2022-08-09T22:17:05.712Z,2.70
2022-08-09T22:19:58.877Z,2.50
2022-08-09T22:22:45.675Z,2.60
2022-08-09T22:26:05.421Z,2.60
2022-08-09T22:28:43.651Z,2.80
2022-08-09T22:31:44.121Z,2.30
2022-08-09T22:34:30.962Z,2.80
2022-08-09T22:37:16.905Z,2.47
2022-08-09T22:40:04.696Z,2.50
2022-08-09T22:42:50.267Z,2.60
2022-08-09T22:48:11.605Z,2.70
2022-08-09T22:48:50.672Z,2.67
2022-08-09T22:51:43.274Z,2.20
2022-08-09T22:54:35.462Z,2.67
2022-08-09T22:57:21.685Z,2.50
2022-08-09T23:00:07.889Z,2.80
2022-08-09T23:02:57.642Z,2.27
2022-08-09T23:05:45.858Z,2.60
2022-08-09T23:08:46.910Z,2.47
2022-08-09T23:11:32.214Z,2.27
2022-08-09T23:14:17.792Z,2.40
2022-08-09T23:17:22.890Z,2.03
2022-08-09T23:20:08.894Z,2.50
2022-08-09T23:22:54.765Z,2.83
2022-08-09T23:25:39.985Z,2.80
2022-08-09T23:28:25.327Z,2.63
2022-08-09T23:31:10.703Z,2.60
2022-08-09T23:33:56.122Z,2.27
2022-08-09T23:36:41.442Z,2.60
2022-08-09T23:39:26.602Z,2.60
2022-08-09T23:42:12.010Z,2.80
2022-08-09T23:44:58.162Z,2.63
2022-08-09T23:47:43.381Z,2.80
2022-08-09T23:50:28.896Z,2.60
2022-08-09T23:53:14.172Z,2.70
2022-08-09T23:56:01.455Z,2.53
2022-08-09T23:58:51.012Z,2.77
